Date,TemperatureHighF,TemperatureAvgF,TemperatureLowF,DewpointHighF,DewpointAvgF,DewpointLowF,HumidityHigh,HumidityAvg,HumidityLow,PressureMaxIn,PressureMinIn,WindSpeedMaxMPH,WindSpeedAvgMPH,GustSpeedMaxMPH,PrecipitationSumIn
2013-1-8,57.2,52.9,49.5,32.0,26.4,22.0,42,36,28,30.05,29.99,13,2,0,0.35
2013-1-9,53.2,47.4,33.8,34.0,26.7,22.0,98,47,30,30.00,29.79,19,6,0,0.00
2013-1-10,33.4,25.5,20.8,33.0,24.3,19.0,100,95,92,29.93,29.79,12,3,0,0.09
2013-1-12,30.6,22.7,14.9,30.0,21.0,12.0,98,93,89,30.17,30.07,0,0,0,0.25
2013-1-13,23.1,21.9,20.4,20.0,18.2,16.0,86,85,84,30.11,30.10,3,1,0,0.10
2013-1-14,28.2,24.6,21.1,12.0,10.0,7.0,63,54,46,30.41,30.30,2,0,0,0.06
2013-1-15,45.7,42.6,38.4,22.0,18.7,16.0,47,39,31,30.32,30.21,6,0,0,0.15
2013-1-16,56.0,49.6,40.2,29.0,18.1,3.0,44,29,17,30.28,30.09,7,0,0,0.01
2013-1-17,49.2,44.7,40.7,8.0,4.4,0.0,25,19,15,30.18,30.09,25,6,0,0.00
2013-1-18,49.4,45.5,43.0,8.0,2.9,-3.0,19,17,12,30.14,30.05,18,7,0,0.00
2013-1-19,49.2,45.7,42.8,4.0,0.7,-3.0,20,15,13,30.17,30.07,17,5,0,0.00
2013-1-20,51.0,46.7,44.0,7.0,0.8,-3.0,17,15,11,30.12,30.03,18,4,0,0.00
2013-1-21,52.8,48.2,44.5,6.0,0.5,-5.0,19,14,11,30.07,30.02,17,2,0,0.00
2013-1-22,50.5,47.5,44.2,7.0,4.4,-1.0,20,17,13,30.06,29.98,24,7,0,0.00
2013-1-23,54.2,47.7,37.9,32.0,18.5,6.0,72,34,17,30.02,29.91,30,12,0,0.01
2013-1-24,50.3,43.7,37.7,47.0,42.0,29.0,100,94,70,30.08,29.93,18,6,0,0.24
2013-1-25,42.7,41.1,39.2,43.0,40.9,39.0,100,99,96,30.07,29.92,25,4,0,0.13
2013-1-26,41.5,39.6,35.3,42.0,39.6,35.0,100,100,100,29.92,29.82,14,3,0,0.45
2013-1-27,35.8,28.5,24.4,36.0,28.0,23.0,100,97,95,30.05,29.87,10,2,0,0.01
2013-1-30,54.1,45.3,38.7,32.0,28.0,25.0,64,52,37,30.21,30.14,6,2,0,0.06
2013-1-31,56.9,48.5,43.4,31.0,26.4,18.0,54,43,32,30.19,30.04,18,2,0,0.00